Susan Morrison — WDC7426 — position and weather

sailwx.info

Track history (hours):
 
Tides and Currents Weather Stations Pressure Air Temp Water Temp Dewpoint Dewpoint Depression Visibility Wind Speed Wind Dir Waves Ship Positions

Susan Morrison

Owner: Chet Morrison Contractors Inc., Houma, LA. More information available from US FCC via Universal Licensing System and Coast Guard Vessel Documentation Center.

Last reported at 2017-Oct-20 05:06 UTC. Time now 2017-Oct-20 07:01 UTC.
Position N 30°04' W 093°39'.

Length 15 m; draft 3.1 m.

Type: Towing. MMSI: 367071230.

Date/timePositionNaut miles runAvg speedWind from/ knotsBaromVisibWave heightAir tempDewpointWater temp
2017-Oct-20 05:06N 30°04' W 093°39'0 0.0
2017-Oct-20 05:00N 30°04' W 093°39'0 0.0
2017-Oct-20 03:42N 30°04' W 093°39'0 0.0
2017-Oct-20 03:30N 30°04' W 093°39'3 0.2
2017-Oct-19 09:46N 30°04' W 093°43'0 0.0
2017-Oct-19 02:37N 30°04' W 093°43'0 0.0
2017-Oct-19 02:25N 30°04' W 093°43'0 0.1
2017-Oct-19 00:42N 30°04' W 093°43'1 3.7
2017-Oct-19 00:23N 30°03' W 093°42'1 2.0
2017-Oct-19 00:00N 30°04' W 093°42'1 2.8
2017-Oct-18 23:31N 30°04' W 093°40'1 0.1
2017-Oct-18 14:31N 30°04' W 093°41'0 0.0
2017-Oct-16 19:17N 30°04' W 093°42'1 4.6
2017-Oct-16 18:59N 30°04' W 093°40'  
2017-Oct-14 12:53N 30°04' W 093°39'0 0.0
2017-Oct-13 13:36N 30°04' W 093°39'0 0.0
2017-Oct-13 13:20N 30°04' W 093°39'0 0.0
2017-Oct-13 13:00N 30°04' W 093°39'0 0.0
2017-Oct-13 08:33N 30°04' W 093°39'0 0.0
2017-Oct-13 08:29N 30°04' W 093°39'0 0.0
2017-Oct-13 07:59N 30°04' W 093°39'0 0.0
2017-Oct-13 07:29N 30°04' W 093°39'0 0.0
2017-Oct-13 06:56N 30°04' W 093°39'2 0.1
2017-Oct-12 18:38N 30°04' W 093°41'1 4.1
2017-Oct-12 18:30N 30°04' W 093°41'1 0.1
2017-Oct-12 04:47N 30°04' W 093°39'0 0.0
2017-Oct-12 03:38N 30°04' W 093°39'0 0.0
2017-Oct-12 03:23N 30°04' W 093°39'0 0.0
2017-Oct-12 02:59N 30°04' W 093°39'0 0.0
2017-Oct-12 02:20N 30°04' W 093°39'0 0.0
2017-Oct-12 01:56N 30°04' W 093°39'0 0.0
2017-Oct-12 01:02N 30°04' W 093°39'2 0.1
2017-Oct-10 21:38N 30°04' W 093°41'1 4.5
2017-Oct-10 21:30N 30°04' W 093°41'  
Track history (hours):
 
Tides and Currents Weather Stations Pressure Air Temp Water Temp Dewpoint Dewpoint Depression Visibility Wind Speed Wind Dir Waves Ship Positions

Susan Morrison

Owner: Chet Morrison Contractors Inc., Houma, LA. More information available from US FCC via Universal Licensing System and Coast Guard Vessel Documentation Center.

Last reported at 2017-Oct-20 05:06 UTC. Time now 2017-Oct-20 07:01 UTC.
Position N 30°04' W 093°39'.

Length 15 m; draft 3.1 m.

Type: Towing. MMSI: 367071230.

Date/timePositionNaut miles runAvg speedWind from/ knotsBaromVisibWave heightAir tempDewpointWater temp
2017-Oct-20 05:06N 30°04' W 093°39'0 0.0
2017-Oct-20 05:00N 30°04' W 093°39'0 0.0
2017-Oct-20 03:42N 30°04' W 093°39'0 0.0
2017-Oct-20 03:30N 30°04' W 093°39'3 0.2
2017-Oct-19 09:46N 30°04' W 093°43'0 0.0
2017-Oct-19 02:37N 30°04' W 093°43'0 0.0
2017-Oct-19 02:25N 30°04' W 093°43'0 0.1
2017-Oct-19 00:42N 30°04' W 093°43'1 3.7
2017-Oct-19 00:23N 30°03' W 093°42'1 2.0
2017-Oct-19 00:00N 30°04' W 093°42'1 2.8
2017-Oct-18 23:31N 30°04' W 093°40'1 0.1
2017-Oct-18 14:31N 30°04' W 093°41'0 0.0
2017-Oct-16 19:17N 30°04' W 093°42'1 4.6
2017-Oct-16 18:59N 30°04' W 093°40'  
2017-Oct-14 12:53N 30°04' W 093°39'0 0.0
2017-Oct-13 13:36N 30°04' W 093°39'0 0.0
2017-Oct-13 13:20N 30°04' W 093°39'0 0.0
2017-Oct-13 13:00N 30°04' W 093°39'0 0.0
2017-Oct-13 08:33N 30°04' W 093°39'0 0.0
2017-Oct-13 08:29N 30°04' W 093°39'0 0.0
2017-Oct-13 07:59N 30°04' W 093°39'0 0.0
2017-Oct-13 07:29N 30°04' W 093°39'0 0.0
2017-Oct-13 06:56N 30°04' W 093°39'2 0.1
2017-Oct-12 18:38N 30°04' W 093°41'1 4.1
2017-Oct-12 18:30N 30°04' W 093°41'1 0.1
2017-Oct-12 04:47N 30°04' W 093°39'0 0.0
2017-Oct-12 03:38N 30°04' W 093°39'0 0.0
2017-Oct-12 03:23N 30°04' W 093°39'0 0.0
2017-Oct-12 02:59N 30°04' W 093°39'0 0.0
2017-Oct-12 02:20N 30°04' W 093°39'0 0.0
2017-Oct-12 01:56N 30°04' W 093°39'0 0.0
2017-Oct-12 01:02N 30°04' W 093°39'2 0.1
2017-Oct-10 21:38N 30°04' W 093°41'1 4.5
2017-Oct-10 21:30N 30°04' W 093°41'  

Dump ship's entire track history